メインページ
METAR-TAF:

METAR-TAF

空港 :

Dutchess County Airport

Poughkeepsie, ニューヨーク, アメリカ合衆国

緯度: 41-37-36N, 経度: 073-53-03W, 海抜: 50m

現時点の気象観測

当レポートは59分前の01:53(UTC)に作成
南東の風 7kt
気温 23°C
湿度 78%
気圧 1019 hPa
視程: 16.1km
晴天

METAR: KPOU 070153Z AUTO 14007KT 10SM CLR 23/19 A3009 RMK AO2 SLP184 T02330189

時間: 22:52 (02:52 UTC)

予報

当レポートは3時間32分前の23:20(UTC)に作成
予報は07日の 00時(UTC)から 07日の 24時(UTC)まで有効
の風 5kt
視程: 10km
高度8000ftの雲は散在している
近辺でにわか雨
07日の 0300時(UTC)から
南/南東の風 4kt
視程: 10km
高度1500ftの雲は散在している
高度2500ftの千切れ雲あり
07日の 0600時(UTC)から
南東の風 5kt
視程: 10km
高度1200ftの千切れ雲あり
高度2500ftの曇り
07日の 1600時(UTC)から
南東の風 7kt
視程: 10km
高度2000ftの千切れ雲あり
高度3500ftの曇り

TAF: KPOU 062320Z 0700/0724 18005KT P6SM VCSH SCT080 FM070300 16004KT P6SM SCT015 BKN025 FM070600 13005KT P6SM BKN012 OVC025 FM071600 13007KT P6SM BKN020 OVC035

4,000以上の空港の気象観測と天気予報(METAR報とTAF報)

利用可能な観測所は地図上に黄色い丸と赤い丸で示す。

丸の上にカーソルを重ねると観測所名を参照できる。

次にクリックすると気象観測と天気予報を参照できる。

マップの切り替え:黒色「×」印の緑ボタンをクリックして拡大、「-」印の緑ボタンをクリックして縮小、緑色の三角印をクリックして隣りの地図に切り替え


METAR-TAF: